首页
METAR-TAF:

METAR-TAF

机场 :

內排國際機場

河內, 越南

纬度: 21-01N, 经度: 105-48E, 海拔: 6米

当前天气观测

该预报发布于19分钟前的05:00 UTC
风速4节,风向东南,在之间变化
温度 29°C
湿度 66%
气压 1012 hPa
能见度10公里或以上
散云层高于2400英尺
多云层高于3100英尺

METAR: VVNB 140500Z 14004KT 100V190 9999 SCT024 BKN031 29/22 Q1012 NOSIG

时间: 12:19 (05:19 UTC)

预报

该预报发布于6小时和19分钟前的23:00 UTC
预报有效从14日的 00点(UTC)到 14日的 24点(UTC)
风速6节,风向
能見度: 4000
散云层高于2000英尺
多云层高于3000英尺
轻雾
成为
从 14日的 01点(UTC)到 14日的 02点(UTC)
能見度: 6000
成为
从 14日的 05点(UTC)到 14日的 07点(UTC)
风速10节,风向东南
短暂存在
从 14日的 20点(UTC)到 14日的 24点(UTC)
能見度: 4000
散云层高于1300英尺
多云层高于3000英尺
小雨, 轻雾

TAF: VVNB 132300Z 1400/1424 08006KT 4000 BR SCT020 BKN030 BECMG 1401/1402 6000 NSW BECMG 1405/1407 14010KT TEMPO 1420/1424 4000 -RA BR SCT013 BKN030

超过4000个机场的气象观测和天气预报(METAR&TAF报告)。

可查询的气象台以黄色和红色小点在地图上表示。

将鼠标移到小点上方,可查看气象台名称。

然后点击查看天气观测和预报。

如需切换地图:点击带黑十字的绿色按钮放大地图;点击带横线的绿色按钮缩小地图;或者点击绿色箭头查看邻近地区的地图。


METAR-TAF: